createdAt,value
2018-11-04T00:00:47.820Z,92.13
2018-11-04T00:03:18.145Z,92.06
2018-11-04T00:05:48.193Z,91.09
2018-11-04T00:08:18.457Z,91.99
2018-11-04T00:10:48.913Z,92.45
2018-11-04T00:13:19.591Z,92.11
2018-11-04T00:15:50.249Z,92.58
2018-11-04T00:18:20.649Z,92.08
2018-11-04T00:20:51.052Z,92.76
2018-11-04T00:23:22.123Z,93.21
2018-11-04T00:25:52.514Z,93.71
2018-11-04T00:28:22.988Z,93.16
2018-11-04T00:30:53.374Z,93.03
2018-11-04T00:33:23.907Z,93.05
2018-11-04T00:35:54.150Z,93.22
2018-11-04T00:38:24.547Z,93.03
2018-11-04T00:40:55.029Z,93.95
2018-11-04T00:43:25.349Z,93.78
2018-11-04T00:45:56.113Z,93.38
2018-11-04T00:48:26.715Z,93.04
2018-11-04T00:50:57.121Z,93.28
2018-11-04T00:53:27.373Z,93.24
2018-11-04T00:55:57.550Z,93.04
2018-11-04T00:58:28.161Z,93.43
2018-11-04T01:00:58.426Z,93.53
2018-11-04T01:03:28.280Z,93.40
2018-11-04T01:05:58.682Z,94.07
2018-11-04T01:08:29.179Z,93.54
2018-11-04T01:10:59.846Z,93.60
2018-11-04T01:13:30.635Z,93.78
2018-11-04T01:16:00.675Z,93.87
2018-11-04T01:18:31.475Z,93.77
2018-11-04T01:21:03.362Z,93.96
2018-11-04T01:23:33.828Z,93.63
2018-11-04T01:26:06.258Z,93.48
2018-11-04T01:28:36.421Z,93.97
2018-11-04T01:31:06.437Z,93.97
2018-11-04T01:33:36.526Z,93.69
2018-11-04T01:36:06.840Z,93.91
2018-11-04T01:38:36.883Z,94.06
2018-11-04T01:41:07.349Z,93.46
2018-11-04T01:43:37.588Z,93.27
2018-11-04T01:46:07.870Z,92.94
2018-11-04T01:48:37.997Z,93.11
2018-11-04T01:51:08.055Z,93.61
2018-11-04T01:53:37.990Z,94.26
2018-11-04T01:56:08.511Z,93.72
2018-11-04T01:58:38.839Z,94.20
2018-11-04T02:01:08.987Z,93.92
2018-11-04T02:03:39.141Z,93.87
2018-11-04T02:06:09.108Z,93.95
2018-11-04T02:08:39.021Z,93.86
2018-11-04T02:11:08.881Z,93.56
2018-11-04T02:13:38.601Z,94.13
2018-11-04T02:16:08.792Z,94.46
2018-11-04T02:18:38.667Z,94.20
2018-11-04T02:21:09.150Z,94.66
2018-11-04T02:23:39.149Z,94.59
2018-11-04T02:26:09.397Z,94.36
2018-11-04T02:28:39.924Z,94.70
2018-11-04T02:31:10.087Z,94.21
2018-11-04T02:33:39.930Z,94.37
2018-11-04T02:36:10.087Z,94.51
2018-11-04T02:38:41.018Z,94.53
2018-11-04T02:41:11.115Z,94.01
2018-11-04T02:43:41.107Z,94.83
2018-11-04T02:46:11.311Z,94.61
2018-11-04T02:48:41.409Z,94.77
2018-11-04T02:51:11.636Z,94.87
2018-11-04T02:53:41.831Z,95.59
2018-11-04T02:56:11.891Z,95.79
2018-11-04T02:58:42.179Z,95.41
2018-11-04T03:01:12.317Z,95.21
2018-11-04T03:03:43.473Z,95.34
2018-11-04T03:06:13.512Z,95.43
2018-11-04T03:08:43.619Z,95.30
2018-11-04T03:11:13.771Z,96.08
2018-11-04T03:13:43.862Z,95.16
2018-11-04T03:16:14.021Z,95.39
2018-11-04T03:18:44.034Z,95.85
2018-11-04T03:21:14.568Z,96.40
2018-11-04T03:23:44.993Z,96.42
2018-11-04T03:26:15.457Z,96.85
2018-11-04T03:28:45.702Z,97.25
2018-11-04T03:31:16.035Z,96.86
2018-11-04T03:33:46.074Z,97.19
2018-11-04T03:36:16.074Z,96.65
2018-11-04T03:38:46.300Z,96.70
2018-11-04T03:41:16.406Z,96.47
2018-11-04T03:43:47.086Z,96.11
2018-11-04T03:46:16.959Z,96.40
2018-11-04T03:48:47.112Z,96.64
2018-11-04T03:51:17.181Z,96.67
2018-11-04T03:53:47.552Z,96.16
2018-11-04T03:56:18.353Z,96.15
2018-11-04T03:58:48.891Z,96.08
2018-11-04T04:01:19.318Z,96.38
2018-11-04T04:03:49.550Z,96.37
2018-11-04T04:06:20.357Z,96.95
2018-11-04T04:08:51.027Z,95.99
2018-11-04T04:11:21.138Z,97.41
2018-11-04T04:13:51.271Z,97.63
2018-11-04T04:16:21.291Z,97.08
2018-11-04T04:18:51.814Z,96.37
2018-11-04T04:21:22.673Z,95.96
2018-11-04T04:23:53.237Z,97.19
2018-11-04T04:26:24.269Z,97.45
2018-11-04T04:28:55.681Z,97.28
2018-11-04T04:31:26.251Z,96.98
2018-11-04T04:33:57.377Z,97.21
2018-11-04T04:36:27.326Z,97.00
2018-11-04T04:38:58.772Z,97.63
2018-11-04T04:41:29.366Z,97.22
2018-11-04T04:44:01.601Z,97.25
2018-11-04T04:46:31.934Z,97.57
2018-11-04T04:49:02.690Z,97.82
2018-11-04T04:51:33.330Z,97.61
2018-11-04T04:54:04.377Z,97.40
2018-11-04T04:56:35.243Z,97.19
2018-11-04T04:59:06.313Z,97.14
2018-11-04T05:01:37.384Z,97.73
2018-11-04T05:04:11.018Z,97.93
2018-11-04T05:06:40.849Z,97.93
2018-11-04T05:09:10.772Z,97.66
2018-11-04T05:11:41.759Z,97.26
2018-11-04T05:14:12.426Z,97.19
2018-11-04T05:16:43.320Z,97.60
2018-11-04T05:19:14.295Z,97.46
2018-11-04T05:21:45.225Z,97.76
2018-11-04T05:24:16.275Z,97.40
2018-11-04T05:26:47.338Z,97.53
2018-11-04T05:29:18.218Z,97.33
2018-11-04T05:31:49.431Z,97.45
2018-11-04T05:34:20.147Z,97.40
2018-11-04T05:36:51.842Z,97.79
2018-11-04T05:39:23.589Z,98.25
2018-11-04T05:41:53.738Z,97.91
2018-11-04T05:44:24.326Z,97.19
2018-11-04T05:46:55.649Z,98.30
2018-11-04T05:49:26.364Z,98.11
2018-11-04T05:51:58.444Z,98.58
2018-11-04T05:54:28.390Z,97.74
2018-11-04T05:56:59.378Z,97.19
2018-11-04T05:59:30.151Z,96.72
2018-11-04T06:02:01.823Z,97.64
2018-11-04T06:04:32.653Z,97.47
2018-11-04T06:07:03.725Z,97.36
2018-11-04T06:09:34.452Z,97.56
2018-11-04T06:12:05.689Z,97.32
2018-11-04T06:14:35.704Z,97.55
2018-11-04T06:17:06.793Z,98.26
2018-11-04T06:19:37.705Z,97.98
2018-11-04T06:22:08.592Z,97.56
2018-11-04T06:24:39.384Z,97.52
2018-11-04T06:27:10.924Z,97.79
2018-11-04T06:29:41.481Z,98.54
2018-11-04T06:32:12.668Z,99.20
2018-11-04T06:34:43.627Z,98.25
2018-11-04T06:37:14.745Z,97.95
2018-11-04T06:39:45.458Z,98.04
2018-11-04T06:42:16.482Z,98.00
2018-11-04T06:44:47.311Z,98.13
2018-11-04T06:47:18.591Z,98.01
2018-11-04T06:49:49.278Z,97.67
2018-11-04T06:52:21.387Z,97.41
2018-11-04T06:54:51.260Z,98.03
2018-11-04T06:57:22.705Z,98.00
2018-11-04T06:59:53.722Z,97.67
2018-11-04T07:02:24.849Z,98.16
2018-11-04T07:04:55.738Z,98.16
2018-11-04T07:07:26.779Z,98.86
2018-11-04T07:09:57.658Z,98.74
2018-11-04T07:12:29.074Z,98.71
2018-11-04T07:14:59.760Z,99.03
2018-11-04T07:17:30.709Z,98.63
2018-11-04T07:20:01.845Z,98.71
2018-11-04T07:22:32.874Z,98.82
2018-11-04T07:25:03.710Z,98.27
2018-11-04T07:27:34.511Z,98.63
2018-11-04T07:30:06.129Z,98.59
2018-11-04T07:32:36.446Z,98.42
2018-11-04T07:35:09.921Z,98.09
2018-11-04T07:37:40.946Z,98.89
2018-11-04T07:40:11.534Z,99.30
2018-11-04T07:42:42.038Z,99.34
2018-11-04T07:45:11.840Z,99.54
2018-11-04T07:47:43.128Z,99.48
2018-11-04T07:50:15.469Z,99.59
2018-11-04T07:52:46.055Z,99.40
2018-11-04T07:55:15.988Z,99.14
2018-11-04T07:57:46.777Z,99.33
2018-11-04T08:00:17.887Z,99.02
2018-11-04T08:02:48.679Z,99.21
2018-11-04T08:05:19.482Z,99.30
2018-11-04T08:07:50.467Z,99.76
2018-11-04T08:10:21.116Z,99.63
2018-11-04T08:12:52.464Z,99.64
2018-11-04T08:15:23.232Z,99.76
2018-11-04T08:17:54.342Z,99.87
2018-11-04T08:20:25.345Z,99.30
2018-11-04T08:22:56.539Z,99.12
2018-11-04T08:25:27.177Z,99.30
2018-11-04T08:27:58.138Z,99.02
2018-11-04T08:30:29.536Z,98.86
2018-11-04T08:33:00.193Z,98.34
2018-11-04T08:35:31.196Z,98.69
2018-11-04T08:38:02.574Z,99.11
2018-11-04T08:40:44.262Z,99.23
2018-11-04T08:43:14.234Z,99.41
2018-11-04T08:45:44.091Z,99.19
2018-11-04T08:48:14.234Z,98.74
2018-11-04T08:50:44.071Z,98.93
2018-11-04T08:53:14.131Z,98.91
2018-11-04T08:55:44.084Z,99.23
2018-11-04T08:58:13.972Z,98.56
2018-11-04T09:00:44.003Z,98.39
2018-11-04T09:03:14.155Z,98.60
2018-11-04T09:05:44.204Z,98.32
2018-11-04T09:08:14.258Z,98.10
2018-11-04T09:10:45.074Z,97.56
2018-11-04T09:13:16.573Z,96.97
2018-11-04T09:15:47.222Z,96.46
2018-11-04T09:18:18.202Z,96.64
2018-11-04T09:20:49.090Z,97.01
2018-11-04T09:23:20.532Z,96.87
2018-11-04T09:25:51.106Z,96.96
2018-11-04T09:28:22.545Z,96.63
2018-11-04T09:30:53.206Z,96.72
2018-11-04T09:33:24.228Z,96.21
2018-11-04T09:35:55.273Z,96.05
2018-11-04T09:38:26.169Z,95.65
2018-11-04T09:40:57.040Z,95.78
2018-11-04T09:43:28.451Z,96.07
2018-11-04T09:45:59.065Z,96.14
2018-11-04T09:48:30.309Z,96.05
2018-11-04T09:51:00.970Z,95.92
2018-11-04T09:53:32.398Z,96.04
2018-11-04T09:56:02.930Z,95.63
2018-11-04T09:58:34.361Z,95.29
2018-11-04T10:01:04.896Z,95.31
2018-11-04T10:03:36.441Z,95.65
2018-11-04T10:06:06.951Z,95.69
2018-11-04T10:08:38.465Z,96.21
2018-11-04T10:11:08.997Z,96.07
2018-11-04T10:13:40.378Z,95.88
2018-11-04T10:16:11.329Z,96.90
2018-11-04T10:18:42.356Z,96.94
2018-11-04T10:21:13.324Z,97.23
2018-11-04T10:23:44.061Z,96.90
2018-11-04T10:26:15.213Z,96.87
2018-11-04T10:28:46.456Z,96.46
2018-11-04T10:31:16.257Z,95.73
2018-11-04T10:33:47.082Z,96.01
2018-11-04T10:36:18.599Z,96.14
2018-11-04T10:38:49.483Z,96.00
2018-11-04T10:41:19.989Z,96.57
2018-11-04T10:43:52.211Z,96.71
2018-11-04T10:46:21.979Z,96.77
2018-11-04T10:48:53.405Z,96.90
2018-11-04T10:51:23.946Z,96.39
2018-11-04T10:53:55.553Z,96.32
2018-11-04T10:56:26.026Z,96.15
2018-11-04T10:58:57.250Z,96.72
2018-11-04T11:01:28.011Z,96.23
2018-11-04T11:03:59.572Z,96.90
2018-11-04T11:06:29.987Z,96.44
2018-11-04T11:09:01.561Z,96.24
2018-11-04T11:11:32.025Z,97.00
2018-11-04T11:14:03.415Z,96.89
2018-11-04T11:16:33.927Z,97.04
2018-11-04T11:19:05.498Z,96.81
2018-11-04T11:21:36.025Z,96.88
2018-11-04T11:24:07.535Z,96.42
2018-11-04T11:26:38.147Z,96.91
2018-11-04T11:29:09.117Z,96.54
2018-11-04T11:31:40.258Z,96.25
2018-11-04T11:34:11.325Z,96.84
2018-11-04T11:36:42.125Z,97.01
2018-11-04T11:39:14.515Z,96.84
2018-11-04T11:41:44.712Z,97.06
2018-11-04T11:44:15.433Z,97.52
2018-11-04T11:46:46.210Z,97.52
2018-11-04T11:49:17.374Z,97.60
2018-11-04T11:51:47.975Z,97.22
2018-11-04T11:54:19.589Z,97.16
2018-11-04T11:56:50.036Z,97.20
2018-11-04T11:59:22.070Z,96.68
2018-11-04T12:01:52.039Z,96.65
2018-11-04T12:04:23.420Z,96.75
2018-11-04T12:06:53.994Z,96.75
2018-11-04T12:09:25.674Z,96.69
2018-11-04T12:11:56.753Z,97.23
2018-11-04T12:14:27.346Z,96.95
2018-11-04T12:16:57.986Z,96.93
2018-11-04T12:19:29.592Z,97.03
2018-11-04T12:22:00.100Z,97.00
2018-11-04T12:24:31.539Z,96.97
2018-11-04T12:27:02.073Z,97.07
2018-11-04T12:29:33.598Z,96.96
2018-11-04T12:32:04.528Z,97.39
2018-11-04T12:34:35.097Z,97.20
2018-11-04T12:37:06.001Z,96.98
2018-11-04T12:39:37.438Z,96.66
2018-11-04T12:42:08.078Z,97.46
2018-11-04T12:44:39.460Z,97.36
2018-11-04T12:47:10.145Z,96.82
2018-11-04T12:49:41.181Z,97.08
2018-11-04T12:52:12.083Z,96.70
2018-11-04T12:54:43.269Z,97.40
2018-11-04T12:57:13.899Z,97.11
2018-11-04T12:59:45.442Z,97.11
2018-11-04T13:02:15.973Z,97.62
2018-11-04T13:04:47.472Z,97.07
2018-11-04T13:07:17.944Z,97.02
2018-11-04T13:09:49.487Z,97.22
2018-11-04T13:12:19.977Z,96.97
2018-11-04T13:14:51.557Z,96.83
2018-11-04T13:17:22.032Z,96.52
2018-11-04T13:19:53.417Z,96.24
2018-11-04T13:22:24.017Z,96.32
2018-11-04T13:24:55.443Z,96.41
2018-11-04T13:27:26.016Z,96.86
2018-11-04T13:29:57.658Z,96.78
2018-11-04T13:32:28.250Z,96.60
2018-11-04T13:34:59.215Z,96.95
2018-11-04T13:37:30.053Z,96.92
2018-11-04T13:40:01.437Z,96.53
2018-11-04T13:42:32.132Z,96.29
2018-11-04T13:45:03.228Z,96.56
2018-11-04T13:47:34.060Z,96.35
2018-11-04T13:50:05.833Z,96.46
2018-11-04T13:52:36.291Z,96.68
2018-11-04T13:55:07.746Z,96.83
2018-11-04T13:57:38.552Z,96.26
2018-11-04T14:00:13.270Z,95.98
2018-11-04T14:02:44.316Z,95.85
2018-11-04T14:05:15.012Z,95.86
2018-11-04T14:07:44.785Z,96.18
2018-11-04T14:10:16.456Z,95.73
2018-11-04T14:12:46.773Z,95.99
2018-11-04T14:15:17.422Z,95.29
2018-11-04T14:17:47.825Z,95.41
2018-11-04T14:20:17.849Z,95.32
2018-11-04T14:22:48.453Z,95.82
2018-11-04T14:25:19.009Z,96.06
2018-11-04T14:27:50.640Z,95.71
2018-11-04T14:30:21.223Z,95.79
2018-11-04T14:32:52.098Z,96.09
2018-11-04T14:35:23.362Z,96.21
2018-11-04T14:37:54.440Z,95.50
2018-11-04T14:40:25.015Z,95.76
2018-11-04T14:42:56.763Z,96.00
2018-11-04T14:45:27.485Z,95.53
2018-11-04T14:47:58.861Z,94.98
2018-11-04T14:50:29.462Z,95.01
2018-11-04T14:53:00.373Z,94.88
2018-11-04T14:55:31.182Z,94.66
2018-11-04T14:58:02.284Z,94.85
2018-11-04T15:00:36.577Z,94.58
2018-11-04T15:03:08.677Z,94.16
2018-11-04T15:05:39.151Z,94.39
2018-11-04T15:08:10.119Z,94.24
2018-11-04T15:10:41.104Z,94.27
2018-11-04T15:13:11.202Z,94.51
2018-11-04T15:15:41.056Z,94.43
2018-11-04T15:18:11.151Z,94.46
2018-11-04T15:20:42.494Z,94.86
2018-11-04T15:23:12.602Z,94.40
2018-11-04T15:25:43.523Z,93.89
2018-11-04T15:28:14.145Z,93.81
2018-11-04T15:30:45.419Z,93.63
2018-11-04T15:33:16.181Z,93.76
2018-11-04T15:35:47.800Z,94.31
2018-11-04T15:38:18.470Z,94.20
2018-11-04T15:40:49.392Z,93.98
2018-11-04T15:43:21.101Z,93.59
2018-11-04T15:45:51.183Z,93.95
2018-11-04T15:48:22.074Z,94.02
2018-11-04T15:50:54.322Z,94.12
2018-11-04T15:53:24.487Z,94.29
2018-11-04T15:55:55.502Z,94.26
2018-11-04T15:58:26.126Z,95.06
2018-11-04T16:00:57.245Z,94.93
2018-11-04T16:03:28.850Z,94.94
2018-11-04T16:05:59.972Z,94.44
2018-11-04T16:08:30.959Z,94.13
2018-11-04T16:11:01.895Z,93.83
2018-11-04T16:13:32.425Z,93.47
2018-11-04T16:16:03.420Z,93.54
2018-11-04T16:18:34.103Z,93.75
2018-11-04T16:21:05.336Z,93.34
2018-11-04T16:23:36.262Z,93.85
2018-11-04T16:26:07.337Z,93.30
2018-11-04T16:28:38.069Z,93.10
2018-11-04T16:31:09.626Z,93.77
2018-11-04T16:33:40.572Z,93.66
2018-11-04T16:36:11.460Z,93.91
2018-11-04T16:38:42.194Z,94.24
2018-11-04T16:41:13.505Z,94.19
2018-11-04T16:43:44.465Z,94.37
2018-11-04T16:46:15.651Z,94.37
2018-11-04T16:48:46.401Z,94.05
2018-11-04T16:51:17.256Z,94.35
2018-11-04T16:53:48.190Z,93.82
2018-11-04T16:56:19.821Z,93.75
2018-11-04T16:58:50.492Z,93.63
2018-11-04T17:01:21.409Z,92.93
2018-11-04T17:03:52.300Z,93.82
2018-11-04T17:06:23.476Z,93.77
2018-11-04T17:08:56.140Z,93.84
2018-11-04T17:11:26.548Z,93.46
2018-11-04T17:13:56.865Z,93.70
2018-11-04T17:16:27.857Z,93.73
2018-11-04T17:18:58.731Z,93.49
2018-11-04T17:21:31.225Z,93.20
2018-11-04T17:24:02.410Z,93.34
2018-11-04T17:26:34.319Z,93.20
2018-11-04T17:29:09.416Z,93.21
2018-11-04T17:31:41.620Z,93.42
2018-11-04T17:34:13.723Z,93.96
2018-11-04T17:36:46.045Z,93.97
2018-11-04T17:39:17.614Z,93.48
2018-11-04T17:41:49.806Z,93.79
2018-11-04T17:44:21.780Z,93.44
2018-11-04T17:46:54.087Z,93.21
2018-11-04T17:49:26.714Z,93.47
2018-11-04T17:51:59.895Z,93.43
2018-11-04T17:54:31.714Z,93.53
2018-11-04T17:57:03.250Z,93.74
2018-11-04T17:59:35.287Z,93.68
2018-11-04T18:02:06.680Z,93.59
2018-11-04T18:04:39.774Z,93.49
2018-11-04T18:07:11.201Z,93.45
2018-11-04T18:09:42.500Z,93.49
2018-11-04T18:12:14.151Z,93.72
2018-11-04T18:14:46.257Z,94.00
2018-11-04T18:17:18.400Z,93.91
2018-11-04T18:19:49.716Z,94.29
2018-11-04T18:22:21.536Z,94.59
2018-11-04T18:24:53.247Z,93.83
2018-11-04T18:27:26.255Z,94.09
2018-11-04T18:29:59.323Z,93.97
2018-11-04T18:32:32.192Z,93.44
2018-11-04T18:35:05.244Z,93.61
2018-11-04T18:37:37.171Z,93.35
2018-11-04T18:40:12.407Z,93.75
2018-11-04T18:42:46.022Z,93.63
2018-11-04T18:45:18.601Z,93.30
2018-11-04T18:47:51.493Z,93.27
2018-11-04T18:50:24.613Z,93.28
2018-11-04T18:52:56.829Z,93.13
2018-11-04T18:55:29.353Z,93.18
2018-11-04T18:58:02.182Z,93.38
2018-11-04T19:00:35.613Z,93.32
2018-11-04T19:03:09.317Z,94.23
2018-11-04T19:05:43.149Z,93.38
2018-11-04T19:08:16.328Z,93.18
2018-11-04T19:10:48.893Z,93.53
2018-11-04T19:13:20.968Z,93.79
2018-11-04T19:15:54.514Z,93.50
2018-11-04T19:18:26.791Z,93.77
2018-11-04T19:20:58.880Z,93.67
2018-11-04T19:23:30.724Z,93.83
2018-11-04T19:26:02.508Z,94.22
2018-11-04T19:28:35.080Z,93.99
2018-11-04T19:31:06.179Z,94.37
2018-11-04T19:33:37.866Z,94.00
2018-11-04T19:36:09.612Z,94.18
2018-11-04T19:38:40.732Z,94.75
2018-11-04T19:41:12.578Z,94.23
2018-11-04T19:43:44.575Z,94.51
2018-11-04T19:46:16.052Z,94.48
2018-11-04T19:48:48.185Z,94.09
2018-11-04T19:51:19.677Z,93.80
2018-11-04T19:53:51.392Z,93.65
2018-11-04T19:56:23.524Z,93.29
2018-11-04T19:58:55.193Z,93.10
2018-11-04T20:01:27.490Z,93.06
2018-11-04T20:04:06.218Z,93.56
2018-11-04T20:06:38.035Z,93.45
2018-11-04T20:09:15.674Z,94.62
2018-11-04T20:11:48.312Z,93.66
2018-11-04T20:14:23.227Z,93.68
2018-11-04T20:16:56.195Z,93.34
2018-11-04T20:19:33.248Z,93.39
2018-11-04T20:22:05.881Z,93.41
2018-11-04T20:24:41.993Z,93.49
2018-11-04T20:27:13.521Z,92.79
2018-11-04T20:29:45.214Z,92.39
2018-11-04T20:32:21.553Z,93.04
2018-11-04T20:34:52.878Z,93.27
2018-11-04T20:37:24.039Z,93.37
2018-11-04T20:39:59.951Z,93.02
2018-11-04T20:42:31.655Z,93.54
2018-11-04T20:45:03.606Z,93.54
2018-11-04T20:47:39.419Z,93.63
2018-11-04T20:50:15.026Z,94.07
2018-11-04T20:52:45.056Z,93.99
2018-11-04T20:55:15.101Z,93.99
2018-11-04T20:57:48.099Z,93.26
2018-11-04T21:00:18.320Z,92.66
2018-11-04T21:02:48.282Z,92.35
2018-11-04T21:05:18.189Z,93.05
2018-11-04T21:07:48.083Z,92.95
2018-11-04T21:10:19.752Z,93.18
2018-11-04T21:12:49.559Z,92.98
2018-11-04T21:15:19.650Z,93.00
2018-11-04T21:17:49.661Z,92.93
2018-11-04T21:20:19.945Z,92.83
2018-11-04T21:22:49.968Z,93.60
2018-11-04T21:25:20.200Z,92.93
2018-11-04T21:27:50.646Z,92.74
2018-11-04T21:30:20.907Z,92.94
2018-11-04T21:32:51.042Z,92.72
2018-11-04T21:35:20.981Z,92.87
2018-11-04T21:37:50.972Z,93.14
2018-11-04T21:40:21.202Z,93.36
2018-11-04T21:42:51.266Z,93.54
2018-11-04T21:45:21.281Z,93.05
2018-11-04T21:47:51.200Z,92.42
2018-11-04T21:50:21.058Z,92.75
2018-11-04T21:52:50.896Z,92.99
2018-11-04T21:55:20.988Z,93.03
2018-11-04T21:57:50.899Z,93.24
2018-11-04T22:00:20.874Z,93.06
2018-11-04T22:02:50.740Z,93.29
2018-11-04T22:05:20.771Z,93.66
2018-11-04T22:07:54.081Z,93.22
2018-11-04T22:10:24.005Z,92.95
2018-11-04T22:12:53.752Z,93.79
2018-11-04T22:15:23.597Z,94.19
2018-11-04T22:17:53.577Z,93.61
2018-11-04T22:20:23.532Z,93.25
2018-11-04T22:22:53.677Z,93.41
2018-11-04T22:25:23.566Z,93.84
2018-11-04T22:27:53.625Z,93.68
2018-11-04T22:30:23.746Z,93.71
2018-11-04T22:32:55.568Z,93.66
2018-11-04T22:35:25.817Z,93.43
2018-11-04T22:37:55.573Z,92.93
2018-11-04T22:40:25.601Z,92.55
2018-11-04T22:42:55.560Z,92.81
2018-11-04T22:45:25.502Z,93.24
2018-11-04T22:47:55.890Z,93.52
2018-11-04T22:50:25.678Z,93.01
2018-11-04T22:52:55.620Z,93.09
2018-11-04T22:55:26.064Z,93.57
2018-11-04T22:57:59.779Z,93.26
2018-11-04T23:00:34.834Z,92.96
2018-11-04T23:03:04.614Z,92.91
2018-11-04T23:05:34.681Z,92.94
2018-11-04T23:08:05.108Z,92.66
2018-11-04T23:10:34.997Z,92.63
2018-11-04T23:13:05.092Z,92.65
2018-11-04T23:15:34.893Z,92.68
2018-11-04T23:18:04.724Z,92.65
2018-11-04T23:20:34.617Z,93.01
2018-11-04T23:23:04.708Z,93.30
2018-11-04T23:25:34.787Z,92.84
2018-11-04T23:28:04.539Z,93.68
2018-11-04T23:30:34.706Z,93.35
2018-11-04T23:33:04.732Z,93.43
2018-11-04T23:35:34.580Z,92.84
2018-11-04T23:38:04.672Z,92.72
2018-11-04T23:40:34.965Z,92.99
2018-11-04T23:43:04.918Z,93.09
2018-11-04T23:45:34.740Z,93.18
2018-11-04T23:48:04.561Z,93.22
2018-11-04T23:50:35.433Z,93.88
2018-11-04T23:53:05.637Z,93.98
2018-11-04T23:55:35.847Z,94.03
2018-11-04T23:58:05.778Z,94.46
